Terminal Aerodrome Forecast
Issued by NWS Bismarck, ND

Home | Current Version | Previous Version | Text Only | Print | Product List | Glossary On
Versions: 1 2 3 4 5 6 7 8 9 10 11 12 13 14 15 16 17 18 19 20 21 22 23 24 25 26 27 28 29 30 31
418
FTUS43 KBIS 051735
TAFBIS
TAF
KBIS 051735Z 0518/0618 30009KT 1/2SM SN OVC008
     FM052000 30013G21KT 3SM -SN BLSN OVC015
     FM060200 31019G27KT 5SM BLSN VCSH OVC035
     FM060900 31023G32KT 1 1/2SM BLSN VCSH OVC015
     FM061000 31023G32KT 2SM BLSN VCSH BKN010
     FM061600 30016G28KT 2SM BLSN BKN015=

USA.gov is the U.S. government's official web portal to all federal, state and local government web resources and services.